Biotrans — JWPN — position and weather

sailwx.info

Track history (hours):
 
Tides and Currents Weather Stations Pressure Air Temp Water Temp Dewpoint Dewpoint Depression Visibility Wind Speed Wind Dir Waves Ship Positions

Biotrans

Last reported at 2015-Jun-30 22:23 UTC. Time now 2015-Jul-01 06:32 UTC.
Position N 67°35' E 014°31'.

Length 55 m; draft 5.5 m.

Type: Cargo ship. MMSI: 259260000.

Date/timePositionNaut miles runAvg speedWind from/ knotsBaromVisibWave heightAir tempDewpointWater temp
2015-Jun-30 22:23N 67°35' E 014°31'8 9.5
2015-Jun-30 21:33N 67°27' E 014°28'10 9.6
2015-Jun-30 20:33N 67°18' E 014°17'9 9.4
2015-Jun-30 19:33N 67°11' E 014°04'10 9.4
2015-Jun-30 18:32N 67°03' E 013°50'9 9.4
2015-Jun-30 17:33N 66°58' E 013°30'9 8.7
2015-Jun-30 16:33N 66°51' E 013°18'20 9.0
2015-Jun-30 14:20N 66°32' E 012°58'7 9.4
2015-Jun-30 13:32N 66°25' E 012°59'65 9.1
2015-Jun-30 06:20N 65°23' E 012°06'7 9.4
2015-Jun-30 05:33N 65°17' E 011°57'10 9.3
2015-Jun-30 04:31N 65°08' E 011°49'9 9.0
2015-Jun-30 03:33N 65°00' E 011°38'9 9.1
2015-Jun-30 02:33N 64°54' E 011°22'9 8.7
2015-Jun-30 01:33N 64°48' E 011°07'53 8.5
2015-Jun-29 19:24N 64°04' E 010°02'7 8.4
2015-Jun-29 18:33N 63°57' E 009°55'4 4.3
2015-Jun-29 17:33N 63°53' E 009°52'0 0.0
2015-Jun-29 16:33N 63°53' E 009°52'0 0.0
2015-Jun-29 15:33N 63°53' E 009°52'0 0.0
2015-Jun-29 14:33N 63°53' E 009°52'0 0.0
2015-Jun-29 13:33N 63°53' E 009°52'0 0.0
2015-Jun-29 12:33N 63°53' E 009°52'0 0.0
2015-Jun-29 11:33N 63°53' E 009°52'0 0.0
2015-Jun-29 10:33N 63°53' E 009°52'0 0.0
2015-Jun-29 09:33N 63°53' E 009°52'0 0.0
2015-Jun-29 08:33N 63°53' E 009°52'1 0.9
2015-Jun-29 07:34N 63°54' E 009°53'8 8.0
2015-Jun-29 06:33N 63°50' E 009°37'5 5.2
2015-Jun-29 05:33N 63°45' E 009°40'2 2.5
2015-Jun-29 04:33N 63°46' E 009°46'0 0.0
2015-Jun-29 03:33N 63°46' E 009°46'6 5.8
2015-Jun-29 02:33N 63°46' E 009°32'9 8.7
2015-Jun-29 01:33N 63°53' E 009°43'8 8.2
2015-Jun-29 00:33N 64°01' E 009°47'54 8.9
2015-Jun-28 18:30N 64°45' E 010°59'9 9.3
2015-Jun-28 17:33N 64°51' E 011°13'9 8.6
2015-Jun-28 16:33N 64°57' E 011°29'9 9.2
2015-Jun-28 15:33N 65°03' E 011°44'10 9.4
2015-Jun-28 14:31N 65°12' E 011°53'74 9.0
2015-Jun-28 06:15N 66°22' E 012°57'8 9.3
2015-Jun-28 05:25N 66°29' E 012°59'26 8.9
2015-Jun-28 02:29N 66°53' E 013°24'8 8.7
2015-Jun-28 01:33N 66°60' E 013°37'9 9.4
2015-Jun-28 00:33N 67°05' E 013°57'9 9.4
2015-Jun-27 23:33N 67°14' E 014°09'9 9.4
2015-Jun-27 22:33N 67°21' E 014°23'9 9.2
2015-Jun-27 21:33N 67°30' E 014°29'10 9.7
2015-Jun-27 20:33N 67°40' E 014°31'150 8.8
2015-Jun-27 03:33N 69°35' E 018°51'  
2015-Jun-21 22:33N 67°32' E 014°30'9 9.5
2015-Jun-21 21:33N 67°23' E 014°25'9 9.3
2015-Jun-21 20:33N 67°15' E 014°12'8 7.7
2015-Jun-21 19:33N 67°09' E 014°00'6 6.0
2015-Jun-21 18:33N 67°04' E 013°53'1010.0
2015-Jun-21 17:32N 66°58' E 013°31'9 8.8
2015-Jun-21 16:33N 66°51' E 013°19'20 8.0
2015-Jun-21 14:04N 66°33' E 012°58'1 1.1
2015-Jun-21 13:24N 66°32' E 012°57'5 5.9
2015-Jun-21 12:28N 66°27' E 012°59'3 3.2
2015-Jun-21 11:32N 66°25' E 012°54'0 0.2
2015-Jun-21 10:30N 66°25' E 012°53'0 0.0
2015-Jun-21 09:32N 66°25' E 012°53'0 0.0
2015-Jun-21 08:33N 66°25' E 012°53'6 5.8
2015-Jun-21 07:33N 66°19' E 012°48'8 8.2
2015-Jun-21 06:33N 66°15' E 012°30'4 4.0
2015-Jun-21 05:27N 66°14' E 012°20'5 5.8
2015-Jun-21 04:33N 66°14' E 012°32'  
Track history (hours):
 
Tides and Currents Weather Stations Pressure Air Temp Water Temp Dewpoint Dewpoint Depression Visibility Wind Speed Wind Dir Waves Ship Positions

Biotrans

Last reported at 2015-Jun-30 22:23 UTC. Time now 2015-Jul-01 06:32 UTC.
Position N 67°35' E 014°31'.

Length 55 m; draft 5.5 m.

Type: Cargo ship. MMSI: 259260000.

Date/timePositionNaut miles runAvg speedWind from/ knotsBaromVisibWave heightAir tempDewpointWater temp
2015-Jun-30 22:23N 67°35' E 014°31'8 9.5
2015-Jun-30 21:33N 67°27' E 014°28'10 9.6
2015-Jun-30 20:33N 67°18' E 014°17'9 9.4
2015-Jun-30 19:33N 67°11' E 014°04'10 9.4
2015-Jun-30 18:32N 67°03' E 013°50'9 9.4
2015-Jun-30 17:33N 66°58' E 013°30'9 8.7
2015-Jun-30 16:33N 66°51' E 013°18'20 9.0
2015-Jun-30 14:20N 66°32' E 012°58'7 9.4
2015-Jun-30 13:32N 66°25' E 012°59'65 9.1
2015-Jun-30 06:20N 65°23' E 012°06'7 9.4
2015-Jun-30 05:33N 65°17' E 011°57'10 9.3
2015-Jun-30 04:31N 65°08' E 011°49'9 9.0
2015-Jun-30 03:33N 65°00' E 011°38'9 9.1
2015-Jun-30 02:33N 64°54' E 011°22'9 8.7
2015-Jun-30 01:33N 64°48' E 011°07'53 8.5
2015-Jun-29 19:24N 64°04' E 010°02'7 8.4
2015-Jun-29 18:33N 63°57' E 009°55'4 4.3
2015-Jun-29 17:33N 63°53' E 009°52'0 0.0
2015-Jun-29 16:33N 63°53' E 009°52'0 0.0
2015-Jun-29 15:33N 63°53' E 009°52'0 0.0
2015-Jun-29 14:33N 63°53' E 009°52'0 0.0
2015-Jun-29 13:33N 63°53' E 009°52'0 0.0
2015-Jun-29 12:33N 63°53' E 009°52'0 0.0
2015-Jun-29 11:33N 63°53' E 009°52'0 0.0
2015-Jun-29 10:33N 63°53' E 009°52'0 0.0
2015-Jun-29 09:33N 63°53' E 009°52'0 0.0
2015-Jun-29 08:33N 63°53' E 009°52'1 0.9
2015-Jun-29 07:34N 63°54' E 009°53'8 8.0
2015-Jun-29 06:33N 63°50' E 009°37'5 5.2
2015-Jun-29 05:33N 63°45' E 009°40'2 2.5
2015-Jun-29 04:33N 63°46' E 009°46'0 0.0
2015-Jun-29 03:33N 63°46' E 009°46'6 5.8
2015-Jun-29 02:33N 63°46' E 009°32'9 8.7
2015-Jun-29 01:33N 63°53' E 009°43'8 8.2
2015-Jun-29 00:33N 64°01' E 009°47'54 8.9
2015-Jun-28 18:30N 64°45' E 010°59'9 9.3
2015-Jun-28 17:33N 64°51' E 011°13'9 8.6
2015-Jun-28 16:33N 64°57' E 011°29'9 9.2
2015-Jun-28 15:33N 65°03' E 011°44'10 9.4
2015-Jun-28 14:31N 65°12' E 011°53'74 9.0
2015-Jun-28 06:15N 66°22' E 012°57'8 9.3
2015-Jun-28 05:25N 66°29' E 012°59'26 8.9
2015-Jun-28 02:29N 66°53' E 013°24'8 8.7
2015-Jun-28 01:33N 66°60' E 013°37'9 9.4
2015-Jun-28 00:33N 67°05' E 013°57'9 9.4
2015-Jun-27 23:33N 67°14' E 014°09'9 9.4
2015-Jun-27 22:33N 67°21' E 014°23'9 9.2
2015-Jun-27 21:33N 67°30' E 014°29'10 9.7
2015-Jun-27 20:33N 67°40' E 014°31'150 8.8
2015-Jun-27 03:33N 69°35' E 018°51'  
2015-Jun-21 22:33N 67°32' E 014°30'9 9.5
2015-Jun-21 21:33N 67°23' E 014°25'9 9.3
2015-Jun-21 20:33N 67°15' E 014°12'8 7.7
2015-Jun-21 19:33N 67°09' E 014°00'6 6.0
2015-Jun-21 18:33N 67°04' E 013°53'1010.0
2015-Jun-21 17:32N 66°58' E 013°31'9 8.8
2015-Jun-21 16:33N 66°51' E 013°19'20 8.0
2015-Jun-21 14:04N 66°33' E 012°58'1 1.1
2015-Jun-21 13:24N 66°32' E 012°57'5 5.9
2015-Jun-21 12:28N 66°27' E 012°59'3 3.2
2015-Jun-21 11:32N 66°25' E 012°54'0 0.2
2015-Jun-21 10:30N 66°25' E 012°53'0 0.0
2015-Jun-21 09:32N 66°25' E 012°53'0 0.0
2015-Jun-21 08:33N 66°25' E 012°53'6 5.8
2015-Jun-21 07:33N 66°19' E 012°48'8 8.2
2015-Jun-21 06:33N 66°15' E 012°30'4 4.0
2015-Jun-21 05:27N 66°14' E 012°20'5 5.8
2015-Jun-21 04:33N 66°14' E 012°32'  

Dump ship's entire track history